National Geographic Sea Bird — WAK8004 — position and weather

sailwx.info

Track history (hours):
 
Tides and Currents Weather Stations Pressure Air Temp Water Temp Dewpoint Dewpoint Depression Visibility Wind Speed Wind Dir Waves Ship Positions

National Geographic Sea Bird

Owner: Lindblad Expeditions LLC, SEATTLE, WA. More information available from US FCC via Universal Licensing System and Coast Guard Vessel Documentation Center.

Last reported at 2019-Aug-16 04:02 UTC. Time now 2019-Aug-20 10:17 UTC.
Position N 58°14' W 135°34'.

Length 50 m; draft 2.7 m.

Type: Passenger vessel. MMSI: 366892350.

Date/timePositionNaut miles runAvg speedWind from/ knotsBaromVisibWave heightAir tempDewpointWater temp
2019-Aug-16 04:02N 58°14' W 135°34'1 9.6
2019-Aug-16 03:58N 58°14' W 135°35'4 9.7
2019-Aug-16 03:31N 58°16' W 135°42'5 9.0
2019-Aug-16 03:00N 58°18' W 135°50'4 8.9
2019-Aug-16 02:30N 58°19' W 135°58'4 7.5
2019-Aug-16 02:01N 58°20' W 136°05'3 6.4
2019-Aug-16 01:31N 58°20' W 136°11'4 6.6
2019-Aug-16 00:58N 58°16' W 136°11'4 8.4
2019-Aug-16 00:27N 58°12' W 136°12'2 3.8
2019-Aug-15 23:56N 58°12' W 136°15'1 1.9
2019-Aug-15 23:29N 58°13' W 136°15'4 8.1
2019-Aug-15 23:00N 58°17' W 136°15'3 2.8
2019-Aug-15 21:57N 58°19' W 136°19'3 0.5
2019-Aug-15 15:22N 58°16' W 136°21'2 5.8
2019-Aug-15 14:59N 58°17' W 136°17'5 8.9
2019-Aug-15 14:28N 58°13' W 136°13'2 3.1
2019-Aug-15 13:58N 58°11' W 136°14'3 5.5
2019-Aug-15 13:30N 58°14' W 136°13'4 8.0
2019-Aug-15 12:59N 58°15' W 136°05'4 8.2
2019-Aug-15 12:30N 58°16' W 135°58'1 1.1
2019-Aug-15 12:00N 58°15' W 135°58'4 8.9
2019-Aug-15 11:30N 58°17' W 135°50'4 8.4
2019-Aug-15 10:59N 58°17' W 135°42'2 4.0
2019-Aug-15 10:29N 58°16' W 135°38'4 7.7
2019-Aug-15 10:00N 58°15' W 135°32'4 7.5
2019-Aug-15 09:24N 58°13' W 135°25'  
2019-Aug-12 09:30N 58°11' W 135°24'4 7.8
2019-Aug-12 08:57N 58°13' W 135°31'3 7.0
2019-Aug-12 08:30N 58°14' W 135°36'4 7.3
2019-Aug-12 07:59N 58°16' W 135°42'4 7.6
2019-Aug-12 07:30N 58°18' W 135°48'4 7.6
2019-Aug-12 07:00N 58°16' W 135°55'4 8.0
2019-Aug-12 06:30N 58°15' W 136°02'4 8.4
2019-Aug-12 06:00N 58°15' W 136°10'4 7.9
2019-Aug-12 05:30N 58°14' W 136°18'0 0.5
2019-Aug-12 05:00N 58°14' W 136°18'1 1.9
2019-Aug-12 04:30N 58°14' W 136°16'0 1.0
2019-Aug-12 04:00N 58°14' W 136°17'2 0.4
2019-Aug-12 00:31N 58°14' W 136°20'0 8.5
2019-Aug-12 00:30N 58°14' W 136°20'0 0.4
2019-Aug-12 00:00N 58°14' W 136°20'0 0.0
2019-Aug-11 22:57N 58°14' W 136°20'0 0.0
2019-Aug-11 21:54N 58°14' W 136°20'0 0.0
2019-Aug-11 21:18N 58°14' W 136°20'0 0.1
2019-Aug-11 20:49N 58°14' W 136°20'2 7.8
2019-Aug-11 20:30N 58°13' W 136°16'1 1.4
2019-Aug-11 19:49N 58°12' W 136°16'0 0.0
2019-Aug-11 19:25N 58°12' W 136°16'0 0.0
2019-Aug-11 18:52N 58°12' W 136°16'0 0.0
2019-Aug-11 18:22N 58°12' W 136°16'0 0.0
2019-Aug-11 17:52N 58°12' W 136°16'0 0.0
2019-Aug-11 17:28N 58°12' W 136°16'0 0.0
2019-Aug-11 16:46N 58°12' W 136°16'0 0.1
2019-Aug-11 16:28N 58°12' W 136°16'0 0.0
2019-Aug-11 15:37N 58°12' W 136°16'0 0.0
2019-Aug-11 15:16N 58°12' W 136°16'0 0.1
2019-Aug-11 15:00N 58°12' W 136°16'2 2.7
2019-Aug-11 14:09N 58°10' W 136°13'1 9.0
2019-Aug-11 13:59N 58°12' W 136°12'2 4.7
2019-Aug-11 13:30N 58°14' W 136°12'4 7.2
2019-Aug-11 13:00N 58°15' W 136°05'4 7.5
2019-Aug-11 12:30N 58°16' W 135°59'4 7.1
2019-Aug-11 12:00N 58°18' W 135°53'3 5.3
2019-Aug-11 11:30N 58°16' W 135°56'3 5.7
2019-Aug-11 11:00N 58°15' W 136°01'3 5.0
2019-Aug-11 10:29N 58°15' W 136°06'2 4.1
2019-Aug-11 09:56N 58°15' W 136°10'3 7.0
2019-Aug-11 09:30N 58°15' W 136°05'4 7.9
2019-Aug-11 09:01N 58°15' W 135°57'4 8.0
2019-Aug-11 08:30N 58°17' W 135°51'2 4.6
2019-Aug-11 08:00N 58°19' W 135°54'3 6.0
2019-Aug-11 07:30N 58°21' W 135°57'5 9.1
2019-Aug-11 07:00N 58°26' W 135°56'2 4.7
2019-Aug-11 06:30N 58°27' W 135°53'0 0.0
2019-Aug-11 05:58N 58°27' W 135°53'0 0.0
2019-Aug-11 05:28N 58°27' W 135°53'0 0.0
2019-Aug-11 04:58N 58°27' W 135°53'0 0.0
2019-Aug-11 04:28N 58°27' W 135°53'0 0.0
2019-Aug-11 03:58N 58°27' W 135°53'0 0.0
2019-Aug-11 03:30N 58°27' W 135°53'2 4.9
2019-Aug-11 03:00N 58°26' W 135°58'4 8.2
2019-Aug-11 02:30N 58°29' W 136°03'5 9.4
2019-Aug-11 02:00N 58°34' W 136°04'4 8.8
2019-Aug-11 01:31N 58°38' W 136°03'0 1.0
2019-Aug-11 01:00N 58°39' W 136°03'3 6.8
2019-Aug-11 00:30N 58°38' W 136°09'4 7.3
2019-Aug-10 23:59N 58°39' W 136°16'510.0
2019-Aug-10 23:30N 58°44' W 136°13'8 6.5
2019-Aug-10 22:17N 58°49' W 136°25'2 0.3
2019-Aug-10 13:31N 58°48' W 136°29'0 9.4
2019-Aug-10 13:30N 58°48' W 136°29'5 9.2
2019-Aug-10 13:00N 58°44' W 136°23'510.1
2019-Aug-10 12:30N 58°40' W 136°18'5 9.8
2019-Aug-10 12:00N 58°37' W 136°11'5 9.3
2019-Aug-10 11:30N 58°33' W 136°06'4 8.7
2019-Aug-10 11:00N 58°29' W 136°03'4 8.6
2019-Aug-10 10:30N 58°26' W 135°56'2 3.8
2019-Aug-10 10:00N 58°27' W 135°53'0 0.0
2019-Aug-10 09:29N 58°27' W 135°53'0 0.0
2019-Aug-10 09:00N 58°27' W 135°53'1 2.8
2019-Aug-10 08:31N 58°27' W 135°55'5 9.3
2019-Aug-10 08:00N 58°22' W 135°58'3 6.6
2019-Aug-10 07:30N 58°19' W 135°56'3 6.0
2019-Aug-10 07:00N 58°16' W 135°57'2 4.2
2019-Aug-10 06:30N 58°16' W 135°53'3 6.1
2019-Aug-10 06:00N 58°18' W 135°49'1 1.8
2019-Aug-10 05:30N 58°17' W 135°49'0 0.7
2019-Aug-10 05:00N 58°17' W 135°49'0 0.7
2019-Aug-10 04:30N 58°18' W 135°49'0 0.6
2019-Aug-10 04:00N 58°18' W 135°48'1 2.1
2019-Aug-10 03:30N 58°18' W 135°47'4 7.3
2019-Aug-10 03:00N 58°22' W 135°45'2 3.1
2019-Aug-10 02:29N 58°23' W 135°44'4 8.1
2019-Aug-10 02:00N 58°22' W 135°51'5 9.8
2019-Aug-10 01:30N 58°20' W 135°60'611.3
2019-Aug-10 01:00N 58°20' W 136°10'5 0.4
2019-Aug-09 12:41N 58°17' W 136°19'1 7.5
2019-Aug-09 12:30N 58°18' W 136°16'3 6.6
2019-Aug-09 12:00N 58°18' W 136°10'510.0
2019-Aug-09 11:30N 58°20' W 136°01'5 9.2
2019-Aug-09 11:00N 58°19' W 135°53'510.5
2019-Aug-09 10:30N 58°17' W 135°43'610.2
2019-Aug-09 09:57N 58°14' W 135°34'611.0
2019-Aug-09 09:26N 58°12' W 135°24'  
Track history (hours):
 
Tides and Currents Weather Stations Pressure Air Temp Water Temp Dewpoint Dewpoint Depression Visibility Wind Speed Wind Dir Waves Ship Positions

National Geographic Sea Bird

Owner: Lindblad Expeditions LLC, SEATTLE, WA. More information available from US FCC via Universal Licensing System and Coast Guard Vessel Documentation Center.

Last reported at 2019-Aug-16 04:02 UTC. Time now 2019-Aug-20 10:17 UTC.
Position N 58°14' W 135°34'.

Length 50 m; draft 2.7 m.

Type: Passenger vessel. MMSI: 366892350.

Date/timePositionNaut miles runAvg speedWind from/ knotsBaromVisibWave heightAir tempDewpointWater temp
2019-Aug-16 04:02N 58°14' W 135°34'1 9.6
2019-Aug-16 03:58N 58°14' W 135°35'4 9.7
2019-Aug-16 03:31N 58°16' W 135°42'5 9.0
2019-Aug-16 03:00N 58°18' W 135°50'4 8.9
2019-Aug-16 02:30N 58°19' W 135°58'4 7.5
2019-Aug-16 02:01N 58°20' W 136°05'3 6.4
2019-Aug-16 01:31N 58°20' W 136°11'4 6.6
2019-Aug-16 00:58N 58°16' W 136°11'4 8.4
2019-Aug-16 00:27N 58°12' W 136°12'2 3.8
2019-Aug-15 23:56N 58°12' W 136°15'1 1.9
2019-Aug-15 23:29N 58°13' W 136°15'4 8.1
2019-Aug-15 23:00N 58°17' W 136°15'3 2.8
2019-Aug-15 21:57N 58°19' W 136°19'3 0.5
2019-Aug-15 15:22N 58°16' W 136°21'2 5.8
2019-Aug-15 14:59N 58°17' W 136°17'5 8.9
2019-Aug-15 14:28N 58°13' W 136°13'2 3.1
2019-Aug-15 13:58N 58°11' W 136°14'3 5.5
2019-Aug-15 13:30N 58°14' W 136°13'4 8.0
2019-Aug-15 12:59N 58°15' W 136°05'4 8.2
2019-Aug-15 12:30N 58°16' W 135°58'1 1.1
2019-Aug-15 12:00N 58°15' W 135°58'4 8.9
2019-Aug-15 11:30N 58°17' W 135°50'4 8.4
2019-Aug-15 10:59N 58°17' W 135°42'2 4.0
2019-Aug-15 10:29N 58°16' W 135°38'4 7.7
2019-Aug-15 10:00N 58°15' W 135°32'4 7.5
2019-Aug-15 09:24N 58°13' W 135°25'  
2019-Aug-12 09:30N 58°11' W 135°24'4 7.8
2019-Aug-12 08:57N 58°13' W 135°31'3 7.0
2019-Aug-12 08:30N 58°14' W 135°36'4 7.3
2019-Aug-12 07:59N 58°16' W 135°42'4 7.6
2019-Aug-12 07:30N 58°18' W 135°48'4 7.6
2019-Aug-12 07:00N 58°16' W 135°55'4 8.0
2019-Aug-12 06:30N 58°15' W 136°02'4 8.4
2019-Aug-12 06:00N 58°15' W 136°10'4 7.9
2019-Aug-12 05:30N 58°14' W 136°18'0 0.5
2019-Aug-12 05:00N 58°14' W 136°18'1 1.9
2019-Aug-12 04:30N 58°14' W 136°16'0 1.0
2019-Aug-12 04:00N 58°14' W 136°17'2 0.4
2019-Aug-12 00:31N 58°14' W 136°20'0 8.5
2019-Aug-12 00:30N 58°14' W 136°20'0 0.4
2019-Aug-12 00:00N 58°14' W 136°20'0 0.0
2019-Aug-11 22:57N 58°14' W 136°20'0 0.0
2019-Aug-11 21:54N 58°14' W 136°20'0 0.0
2019-Aug-11 21:18N 58°14' W 136°20'0 0.1
2019-Aug-11 20:49N 58°14' W 136°20'2 7.8
2019-Aug-11 20:30N 58°13' W 136°16'1 1.4
2019-Aug-11 19:49N 58°12' W 136°16'0 0.0
2019-Aug-11 19:25N 58°12' W 136°16'0 0.0
2019-Aug-11 18:52N 58°12' W 136°16'0 0.0
2019-Aug-11 18:22N 58°12' W 136°16'0 0.0
2019-Aug-11 17:52N 58°12' W 136°16'0 0.0
2019-Aug-11 17:28N 58°12' W 136°16'0 0.0
2019-Aug-11 16:46N 58°12' W 136°16'0 0.1
2019-Aug-11 16:28N 58°12' W 136°16'0 0.0
2019-Aug-11 15:37N 58°12' W 136°16'0 0.0
2019-Aug-11 15:16N 58°12' W 136°16'0 0.1
2019-Aug-11 15:00N 58°12' W 136°16'2 2.7
2019-Aug-11 14:09N 58°10' W 136°13'1 9.0
2019-Aug-11 13:59N 58°12' W 136°12'2 4.7
2019-Aug-11 13:30N 58°14' W 136°12'4 7.2
2019-Aug-11 13:00N 58°15' W 136°05'4 7.5
2019-Aug-11 12:30N 58°16' W 135°59'4 7.1
2019-Aug-11 12:00N 58°18' W 135°53'3 5.3
2019-Aug-11 11:30N 58°16' W 135°56'3 5.7
2019-Aug-11 11:00N 58°15' W 136°01'3 5.0
2019-Aug-11 10:29N 58°15' W 136°06'2 4.1
2019-Aug-11 09:56N 58°15' W 136°10'3 7.0
2019-Aug-11 09:30N 58°15' W 136°05'4 7.9
2019-Aug-11 09:01N 58°15' W 135°57'4 8.0
2019-Aug-11 08:30N 58°17' W 135°51'2 4.6
2019-Aug-11 08:00N 58°19' W 135°54'3 6.0
2019-Aug-11 07:30N 58°21' W 135°57'5 9.1
2019-Aug-11 07:00N 58°26' W 135°56'2 4.7
2019-Aug-11 06:30N 58°27' W 135°53'0 0.0
2019-Aug-11 05:58N 58°27' W 135°53'0 0.0
2019-Aug-11 05:28N 58°27' W 135°53'0 0.0
2019-Aug-11 04:58N 58°27' W 135°53'0 0.0
2019-Aug-11 04:28N 58°27' W 135°53'0 0.0
2019-Aug-11 03:58N 58°27' W 135°53'0 0.0
2019-Aug-11 03:30N 58°27' W 135°53'2 4.9
2019-Aug-11 03:00N 58°26' W 135°58'4 8.2
2019-Aug-11 02:30N 58°29' W 136°03'5 9.4
2019-Aug-11 02:00N 58°34' W 136°04'4 8.8
2019-Aug-11 01:31N 58°38' W 136°03'0 1.0
2019-Aug-11 01:00N 58°39' W 136°03'3 6.8
2019-Aug-11 00:30N 58°38' W 136°09'4 7.3
2019-Aug-10 23:59N 58°39' W 136°16'510.0
2019-Aug-10 23:30N 58°44' W 136°13'8 6.5
2019-Aug-10 22:17N 58°49' W 136°25'2 0.3
2019-Aug-10 13:31N 58°48' W 136°29'0 9.4
2019-Aug-10 13:30N 58°48' W 136°29'5 9.2
2019-Aug-10 13:00N 58°44' W 136°23'510.1
2019-Aug-10 12:30N 58°40' W 136°18'5 9.8
2019-Aug-10 12:00N 58°37' W 136°11'5 9.3
2019-Aug-10 11:30N 58°33' W 136°06'4 8.7
2019-Aug-10 11:00N 58°29' W 136°03'4 8.6
2019-Aug-10 10:30N 58°26' W 135°56'2 3.8
2019-Aug-10 10:00N 58°27' W 135°53'0 0.0
2019-Aug-10 09:29N 58°27' W 135°53'0 0.0
2019-Aug-10 09:00N 58°27' W 135°53'1 2.8
2019-Aug-10 08:31N 58°27' W 135°55'5 9.3
2019-Aug-10 08:00N 58°22' W 135°58'3 6.6
2019-Aug-10 07:30N 58°19' W 135°56'3 6.0
2019-Aug-10 07:00N 58°16' W 135°57'2 4.2
2019-Aug-10 06:30N 58°16' W 135°53'3 6.1
2019-Aug-10 06:00N 58°18' W 135°49'1 1.8
2019-Aug-10 05:30N 58°17' W 135°49'0 0.7
2019-Aug-10 05:00N 58°17' W 135°49'0 0.7
2019-Aug-10 04:30N 58°18' W 135°49'0 0.6
2019-Aug-10 04:00N 58°18' W 135°48'1 2.1
2019-Aug-10 03:30N 58°18' W 135°47'4 7.3
2019-Aug-10 03:00N 58°22' W 135°45'2 3.1
2019-Aug-10 02:29N 58°23' W 135°44'4 8.1
2019-Aug-10 02:00N 58°22' W 135°51'5 9.8
2019-Aug-10 01:30N 58°20' W 135°60'611.3
2019-Aug-10 01:00N 58°20' W 136°10'5 0.4
2019-Aug-09 12:41N 58°17' W 136°19'1 7.5
2019-Aug-09 12:30N 58°18' W 136°16'3 6.6
2019-Aug-09 12:00N 58°18' W 136°10'510.0
2019-Aug-09 11:30N 58°20' W 136°01'5 9.2
2019-Aug-09 11:00N 58°19' W 135°53'510.5
2019-Aug-09 10:30N 58°17' W 135°43'610.2
2019-Aug-09 09:57N 58°14' W 135°34'611.0
2019-Aug-09 09:26N 58°12' W 135°24'  

Dump ship's entire track history